Clevedon, United Kingdom
Current Conditions -  °F | °C
As of 4:20 PM on Sunday 21 Dec 2014 (Local Time) from EGGD Reporting Station
Broken Clouds Broken Clouds  
Wind Chill: 50°   Ceiling: 1100
Heat Index: 50°   Visibility: 6mi
Dew Point: 46°   Wind: 17mph
Humidity: 87%   Direction: 230°SW
Pressure: 30.24"   Gusts: NA
Location:  51.44°N, 2.86°W
Report Text: EGGD 211620Z 23015KT 9999 FEW009 BKN011 10/08 Q1024
Loading
Personal Weather Stations






























Interactive Weather Map New forecast layout! Learn more

10-Day Weather Forecast

Advertisements
Track Severe Weather on mobile